Time;durP1;ratioP1;P1;durP2;ratioP2;P2;SDS_P1;SDS_P2;PMS_P1;PMS_P2;Temp;Humidity;BMP_temperature;BMP_pressure;BME280_temperature;BME280_humidity;BME280_pressure;Samples;Min_cycle;Max_cycle;Signal;HPM_P1;HPM_P2
2021/04/23 00:00:11;;;;;;;21.43;8.47;;;;;;;5.30;66.29;96649.13;1041780;28;20013;-75
2021/04/23 00:00:52;;;;;;;16.60;7.75;;;;;;;5.29;66.50;96650.16;1041173;28;20022;-75
2021/04/23 00:01:23;;;;;;;17.25;7.55;;;;;;;5.31;66.24;96647.28;1040203;28;20497;-75
2021/04/23 00:01:53;;;;;;;14.50;7.33;;;;;;;5.31;66.59;96650.72;1039861;28;20020;-75
2021/04/23 00:02:23;;;;;;;23.23;8.53;;;;;;;5.29;66.22;96649.34;1039966;28;20028;-75
2021/04/23 00:02:55;;;;;;;17.47;8.03;;;;;;;5.26;66.29;96647.94;1039932;28;20021;-75
2021/04/23 00:03:35;;;;;;;16.13;7.97;;;;;;;5.25;67.09;96661.41;1039434;28;20104;-75
2021/04/23 00:04:06;;;;;;;18.20;8.77;;;;;;;5.22;67.06;96649.44;1039958;28;20018;-75
2021/04/23 00:04:36;;;;;;;18.40;8.50;;;;;;;5.20;67.35;96639.03;1039909;28;20390;-75
2021/04/23 00:05:07;;;;;;;18.90;8.20;;;;;;;5.20;67.50;96662.88;1035693;28;20026;-75
2021/04/23 00:05:38;;;;;;;16.55;8.43;;;;;;;5.17;68.00;96642.13;1035729;28;20030;-75
2021/04/23 00:06:17;;;;;;;16.58;8.23;;;;;;;5.18;67.37;96650.88;1039871;28;20182;-75
2021/04/23 00:06:55;;;;;;;17.83;8.07;;;;;;;5.15;67.52;96652.13;1039830;28;20028;-75
2021/04/23 00:07:25;;;;;;;19.80;8.63;;;;;;;5.16;67.60;96651.09;1037904;28;20014;-75
2021/04/23 00:07:56;;;;;;;18.97;8.77;;;;;;;5.17;68.10;96641.31;1039735;28;20033;-75
2021/04/23 00:08:26;;;;;;;24.93;9.50;;;;;;;5.14;68.14;96647.06;1039790;28;20014;-76
2021/04/23 00:09:07;;;;;;;20.63;7.93;;;;;;;5.15;68.67;96648.66;1040001;28;20052;-75
2021/04/23 00:09:38;;;;;;;18.50;8.43;;;;;;;5.14;68.45;96655.81;1040196;28;20021;-75
2021/04/23 00:10:10;;;;;;;17.90;8.70;;;;;;;5.14;68.63;96645.22;1039653;28;20408;-74
2021/04/23 00:10:40;;;;;;;22.02;9.15;;;;;;;5.17;68.74;96647.44;1040207;28;20033;-75
2021/04/23 00:11:11;;;;;;;18.67;8.93;;;;;;;5.18;68.76;96643.75;1040233;28;20449;-75
2021/04/23 00:11:45;;;;;;;20.70;8.43;;;;;;;5.18;68.25;96641.09;1039819;28;20024;-74
2021/04/23 00:12:16;;;;;;;21.13;8.73;;;;;;;5.17;68.48;96650.09;1039800;28;20020;-75
2021/04/23 00:12:46;;;;;;;18.33;8.27;;;;;;;5.15;68.15;96646.81;1039799;28;20513;-75
2021/04/23 00:13:17;;;;;;;18.27;9.17;;;;;;;5.14;67.98;96647.84;1039988;28;20013;-75
2021/04/23 00:13:47;;;;;;;16.73;8.60;;;;;;;5.13;68.42;96650.72;1040188;28;20029;-74
2021/04/23 00:14:19;;;;;;;16.73;8.20;;;;;;;5.12;68.24;96646.47;1039845;28;20049;-74
2021/04/23 00:14:51;;;;;;;20.50;8.80;;;;;;;5.13;68.58;96648.09;1039886;28;20144;-75
2021/04/23 00:15:21;;;;;;;15.88;9.18;;;;;;;5.11;68.53;96640.34;1039884;28;20071;-75
2021/04/23 00:15:52;;;;;;;20.63;8.70;;;;;;;5.10;68.60;96645.84;1039889;28;20421;-74
2021/04/23 00:16:23;;;;;;;16.50;8.77;;;;;;;5.08;68.61;96629.38;1040029;28;20087;-74
2021/04/23 00:16:53;;;;;;;15.53;8.33;;;;;;;5.11;68.84;96642.19;1040123;28;20048;-75
2021/04/23 00:17:23;;;;;;;15.80;8.60;;;;;;;5.11;69.26;96642.97;1040182;28;20480;-75
2021/04/23 00:17:54;;;;;;;18.23;8.17;;;;;;;5.12;68.94;96643.81;1040213;28;20025;-75
2021/04/23 00:18:24;;;;;;;23.27;8.50;;;;;;;5.13;68.90;96642.78;1039849;28;20032;-74
2021/04/23 00:18:55;;;;;;;21.37;8.73;;;;;;;5.12;68.49;96636.69;1040264;28;20055;-75
2021/04/23 00:19:25;;;;;;;17.67;8.13;;;;;;;5.17;68.68;96638.69;1040245;28;20030;-75
2021/04/23 00:19:56;;;;;;;18.57;8.33;;;;;;;5.17;68.60;96636.03;1040137;28;20017;-75
2021/04/23 00:20:27;;;;;;;18.97;8.70;;;;;;;5.19;68.74;96640.06;1040146;28;20022;-75
2021/04/23 00:20:58;;;;;;;25.08;9.13;;;;;;;5.20;68.55;96638.22;1040189;28;20032;-75
2021/04/23 00:21:28;;;;;;;17.63;8.23;;;;;;;5.20;68.28;96633.72;1040170;28;20044;-76
2021/04/23 00:21:59;;;;;;;23.97;8.63;;;;;;;5.22;68.14;96639.63;1040225;28;20260;-75
2021/04/23 00:22:29;;;;;;;21.93;8.93;;;;;;;5.25;68.38;96638.38;1040214;28;20041;-75
2021/04/23 00:23:03;;;;;;;18.13;8.37;;;;;;;5.27;68.39;96632.84;1040215;28;20037;-75
2021/04/23 00:23:33;;;;;;;24.98;9.60;;;;;;;5.27;68.26;96638.13;1040227;28;20434;-75
2021/04/23 00:24:04;;;;;;;22.40;9.30;;;;;;;5.28;68.12;96637.94;1040254;28;20025;-75
2021/04/23 00:24:34;;;;;;;22.63;8.50;;;;;;;5.31;68.06;96644.63;1039872;28;20067;-75
2021/04/23 00:25:05;;;;;;;21.73;8.50;;;;;;;5.35;68.28;96638.66;1039926;28;20483;-75
2021/04/23 00:25:36;;;;;;;22.52;8.55;;;;;;;5.34;68.35;96644.19;1039806;28;20030;-75
2021/04/23 00:26:07;;;;;;;20.80;8.70;;;;;;;5.34;68.42;96636.25;1039893;28;20029;-75
2021/04/23 00:26:38;;;;;;;22.47;9.23;;;;;;;5.34;68.42;96641.53;1040152;28;20116;-75
2021/04/23 00:27:09;;;;;;;18.40;8.32;;;;;;;5.35;68.24;96641.31;1040161;28;20056;-75
2021/04/23 00:27:41;;;;;;;20.07;8.60;;;;;;;5.35;68.17;96638.66;1040095;28;20044;-75
2021/04/23 00:28:13;;;;;;;19.02;8.55;;;;;;;5.36;68.21;96631.53;1040095;28;20018;-75
2021/04/23 00:28:43;;;;;;;18.85;8.30;;;;;;;5.35;68.16;96640.50;1039847;28;20026;-75
2021/04/23 00:29:14;;;;;;;20.23;8.50;;;;;;;5.32;68.35;96639.09;1040215;28;20084;-75
2021/04/23 00:29:44;;;;;;;20.87;8.53;;;;;;;5.28;68.33;96639.78;1040174;28;20466;-75
2021/04/23 00:30:15;;;;;;;25.93;9.37;;;;;;;5.26;68.66;96645.28;1040214;28;20463;-75
2021/04/23 00:30:50;;;;;;;19.40;8.00;;;;;;;5.20;68.45;96646.97;1040105;28;20018;-75
2021/04/23 00:31:20;;;;;;;22.13;8.20;;;;;;;5.19;68.05;96637.41;1040112;28;20018;-75
2021/04/23 00:32:53;;;;;;;16.50;8.60;;;;;;;5.05;68.74;96643.88;1040075;28;20033;-75
2021/04/23 00:33:24;;;;;;;16.40;8.15;;;;;;;5.00;69.30;96646.34;1040153;28;20061;-75
2021/04/23 00:33:54;;;;;;;20.05;9.05;;;;;;;4.98;69.85;96647.63;1040058;28;20037;-75
2021/04/23 00:34:25;;;;;;;19.53;9.23;;;;;;;4.96;70.51;96642.53;1040265;28;20048;-75
2021/04/23 00:34:55;;;;;;;20.37;8.90;;;;;;;4.87;70.97;96646.50;1040082;28;20017;-75
2021/04/23 00:35:28;;;;;;;24.30;9.03;;;;;;;4.81;71.14;96642.88;1040215;28;20482;-75
2021/04/23 00:35:59;;;;;;;18.80;9.20;;;;;;;4.77;71.13;96641.69;1040157;28;20030;-76
2021/04/23 00:36:29;;;;;;;16.73;7.20;;;;;;;4.68;71.44;96641.16;1040216;28;20029;-75
2021/04/23 00:36:59;;;;;;;20.33;7.87;;;;;;;4.66;70.70;96639.75;1040042;28;20041;-75
2021/04/23 00:37:30;;;;;;;20.43;8.40;;;;;;;4.61;71.38;96643.06;1040628;28;20013;-75
2021/04/23 00:38:02;;;;;;;20.83;8.03;;;;;;;4.56;71.47;96644.72;1040975;28;20013;-75
2021/04/23 00:38:32;;;;;;;21.88;8.38;;;;;;;4.51;71.51;96648.00;1040688;28;20367;-75
2021/04/23 00:39:03;;;;;;;17.50;8.30;;;;;;;4.49;71.72;96649.25;1040647;28;20016;-75
2021/04/23 00:39:35;;;;;;;18.40;8.43;;;;;;;4.45;71.56;96648.84;1040701;28;20013;-75
2021/04/23 00:40:06;;;;;;;18.10;8.43;;;;;;;4.42;71.91;96649.31;1040671;28;20109;-74
2021/04/23 00:40:39;;;;;;;25.73;9.10;;;;;;;4.41;71.42;96650.34;1040663;28;20125;-75
2021/04/23 00:41:12;;;;;;;18.30;8.40;;;;;;;4.41;71.66;96652.97;1040436;28;20259;-75
2021/04/23 00:41:42;;;;;;;19.05;8.60;;;;;;;4.39;71.67;96653.16;1040769;28;20482;-75
2021/04/23 00:42:13;;;;;;;16.27;8.50;;;;;;;4.38;72.15;96656.03;1040838;28;20017;-74
2021/04/23 00:42:43;;;;;;;20.33;8.50;;;;;;;4.37;72.49;96651.78;1040904;28;20014;-75
2021/04/23 00:43:14;;;;;;;16.73;8.60;;;;;;;4.34;72.76;96653.00;1040742;28;20489;-75
2021/04/23 00:43:46;;;;;;;17.77;8.27;;;;;;;4.34;72.54;96647.72;1040400;28;20018;-75
2021/04/23 00:44:16;;;;;;;23.63;8.80;;;;;;;4.32;71.68;96649.78;1040553;28;20108;-75
2021/04/23 00:44:47;;;;;;;18.63;8.67;;;;;;;4.33;72.42;96655.88;1040632;28;20029;-75
2021/04/23 00:45:19;;;;;;;18.70;8.00;;;;;;;4.32;71.50;96648.97;1040548;28;20044;-74
2021/04/23 00:45:49;;;;;;;15.88;7.88;;;;;;;4.32;71.87;96646.31;1041049;28;20474;-74
2021/04/23 00:46:20;;;;;;;19.17;7.60;;;;;;;4.30;71.19;96645.69;1040642;28;20025;-74
2021/04/23 00:46:50;;;;;;;18.97;8.33;;;;;;;4.30;71.14;96646.53;1040670;28;20426;-75
2021/04/23 00:47:21;;;;;;;19.50;7.70;;;;;;;4.28;71.61;96647.75;1040537;28;20091;-74
2021/04/23 00:47:56;;;;;;;19.57;8.10;;;;;;;4.29;71.69;96654.66;1040708;28;20498;-74
2021/04/23 00:48:26;;;;;;;18.83;8.13;;;;;;;4.27;71.55;96654.91;1040757;28;20427;-75
2021/04/23 00:48:57;;;;;;;15.93;7.50;;;;;;;4.26;71.92;96649.81;1040824;28;20052;-74
2021/04/23 00:49:28;;;;;;;19.30;8.47;;;;;;;4.27;72.38;96651.44;1040555;28;20124;-75
2021/04/23 00:49:58;;;;;;;17.53;8.30;;;;;;;4.26;72.39;96653.28;1036534;28;20061;-75
2021/04/23 00:50:43;;;;;;;18.90;7.17;;;;;;;4.24;72.67;96643.91;1036531;28;20406;-74
2021/04/23 00:51:22;;;;;;;17.65;7.53;;;;;;;4.23;73.11;96648.41;1038608;28;20014;-74
2021/04/23 00:51:54;;;;;;;18.60;7.95;;;;;;;4.24;72.54;96649.22;1040845;28;20461;-74
2021/04/23 00:52:25;;;;;;;17.20;7.55;;;;;;;4.22;73.16;96653.91;1040912;28;20033;-74
2021/04/23 00:52:55;;;;;;;15.70;7.87;;;;;;;4.23;72.99;96648.41;1040989;28;20493;-74
2021/04/23 00:53:28;;;;;;;21.13;7.93;;;;;;;4.21;73.42;96644.38;1040824;28;20029;-75
2021/04/23 00:53:59;;;;;;;15.75;7.88;;;;;;;4.21;73.62;96652.31;1040891;28;20022;-75
2021/04/23 00:54:29;;;;;;;16.50;8.37;;;;;;;4.18;73.97;96646.38;1040913;28;20033;-75
2021/04/23 00:55:00;;;;;;;20.23;8.70;;;;;;;4.16;73.82;96651.09;1040931;28;20082;-75
2021/04/23 00:55:30;;;;;;;17.93;8.70;;;;;;;4.15;74.35;96656.63;1040884;28;20029;-74
2021/04/23 00:56:02;;;;;;;16.77;7.50;;;;;;;4.12;74.06;96655.19;1040887;28;20041;-74
2021/04/23 00:56:35;;;;;;;15.65;8.35;;;;;;;4.09;74.68;96666.19;1040909;28;20022;-75
2021/04/23 00:57:06;;;;;;;13.25;7.47;;;;;;;4.06;74.59;96653.41;1040767;28;20026;-75
2021/04/23 00:57:36;;;;;;;14.70;8.47;;;;;;;4.03;74.55;96653.81;1040864;28;20029;-74
2021/04/23 00:58:11;;;;;;;15.30;7.87;;;;;;;4.01;75.18;96652.41;1040764;28;20013;-74
2021/04/23 00:58:42;;;;;;;20.48;8.82;;;;;;;3.97;75.14;96659.94;1040547;28;20064;-75
2021/04/23 00:59:13;;;;;;;18.50;8.47;;;;;;;3.96;75.96;96663.63;1040523;28;20030;-75
2021/04/23 00:59:43;;;;;;;19.67;9.33;;;;;;;3.96;75.39;96662.81;1040484;28;20276;-75
2021/04/23 01:00:14;;;;;;;23.60;10.47;;;;;;;3.92;75.86;96659.78;1036614;28;20570;-75
2021/04/23 01:00:50;;;;;;;24.93;11.10;;;;;;;3.90;76.32;96654.72;1036410;28;20100;-74
2021/04/23 01:01:25;;;;;;;29.48;12.35;;;;;;;3.90;76.81;96652.06;1036424;28;20022;-74
2021/04/23 01:01:59;;;;;;;28.77;13.35;;;;;;;3.90;77.15;96664.47;1037948;28;20034;-74
2021/04/23 01:02:29;;;;;;;36.38;15.50;;;;;;;3.89;76.78;96660.22;1040734;28;20486;-74
2021/04/23 01:03:00;;;;;;;36.30;15.57;;;;;;;3.87;76.78;96656.97;1040935;28;20037;-74
2021/04/23 01:03:30;;;;;;;37.67;19.53;;;;;;;3.87;77.34;96656.97;1040667;28;20021;-74
2021/04/23 01:04:04;;;;;;;39.97;20.00;;;;;;;3.89;77.17;96655.75;1040838;28;20044;-74
2021/04/23 01:04:34;;;;;;;35.17;17.05;;;;;;;3.90;77.06;96656.53;1040835;28;20013;-75
2021/04/23 01:05:05;;;;;;;35.93;21.90;;;;;;;3.90;76.92;96653.91;1041034;28;20037;-75
2021/04/23 01:05:35;;;;;;;37.35;21.42;;;;;;;3.87;76.62;96657.75;1046546;28;20067;-74
2021/04/23 01:06:14;;;;;;;38.53;20.57;;;;;;;3.90;76.31;96661.84;1046309;28;20032;-75
2021/04/23 01:06:44;;;;;;;41.05;20.92;;;;;;;3.88;76.43;96655.94;1044753;28;20029;-75
2021/04/23 01:07:15;;;;;;;36.83;19.07;;;;;;;3.84;76.68;96657.41;1043590;28;20025;-75
2021/04/23 01:07:49;;;;;;;33.13;18.47;;;;;;;3.84;76.27;96662.69;1040932;28;20028;-74
2021/04/23 01:08:25;;;;;;;33.53;19.08;;;;;;;3.81;76.95;96663.09;1036760;28;20265;-74
2021/04/23 01:08:56;;;;;;;43.25;23.80;;;;;;;3.83;76.03;96667.13;1036862;28;20428;-74
2021/04/23 01:09:29;;;;;;;38.80;21.67;;;;;;;3.80;76.07;96651.72;1036800;28;20029;-74
2021/04/23 01:10:00;;;;;;;38.30;22.58;;;;;;;3.84;76.43;96665.31;1036798;28;20040;-73
2021/04/23 01:10:30;;;;;;;38.37;21.70;;;;;;;3.82;75.98;96652.28;1040571;28;20386;-74
2021/04/23 01:11:01;;;;;;;41.57;22.00;;;;;;;3.87;76.00;96656.97;1040643;28;20406;-74
2021/04/23 01:11:32;;;;;;;42.47;22.92;;;;;;;3.87;76.01;96657.75;1040633;28;20490;-74
2021/04/23 01:12:04;;;;;;;34.23;17.63;;;;;;;3.88;75.37;96655.94;1040453;28;20037;-74
2021/04/23 01:12:35;;;;;;;34.30;16.27;;;;;;;3.90;74.62;96664.47;1036710;28;20034;-73
2021/04/23 01:13:05;;;;;;;34.10;18.10;;;;;;;3.94;75.21;96657.72;1036355;28;20042;-75
2021/04/23 01:13:36;;;;;;;39.73;19.43;;;;;;;3.96;75.53;96655.69;1036462;28;20030;-74
2021/04/23 01:14:07;;;;;;;31.70;18.47;;;;;;;3.98;75.58;96661.56;1036453;28;20442;-75
2021/04/23 01:14:37;;;;;;;34.65;18.02;;;;;;;4.00;75.95;96656.91;1032531;28;20057;-74
2021/04/23 01:15:09;;;;;;;32.47;17.07;;;;;;;4.00;75.85;96656.91;1032411;28;20069;-74
2021/04/23 01:15:39;;;;;;;32.95;16.65;;;;;;;4.01;75.78;96661.16;1028317;28;20112;-75
2021/04/23 01:16:12;;;;;;;27.83;15.00;;;;;;;4.03;75.37;96658.28;1028724;28;20476;-75
2021/04/23 01:16:42;;;;;;;25.70;13.93;;;;;;;4.06;75.06;96656.03;1032874;28;20034;-75
2021/04/23 01:17:12;;;;;;;19.10;11.60;;;;;;;4.09;75.37;96662.72;1036800;28;20041;-75
2021/04/23 01:17:43;;;;;;;19.33;10.53;;;;;;;4.10;74.97;96654.59;1036877;28;20053;-75
2021/04/23 01:18:13;;;;;;;25.83;12.77;;;;;;;4.12;75.16;96659.66;1036765;28;20033;-75
2021/04/23 01:18:44;;;;;;;29.40;13.17;;;;;;;4.12;75.73;96657.84;1036675;28;20038;-75
2021/04/23 01:19:17;;;;;;;31.63;13.80;;;;;;;4.12;75.82;96659.66;1036397;28;20026;-75
2021/04/23 01:19:47;;;;;;;25.60;12.07;;;;;;;4.11;75.69;96655.41;1036415;28;20534;-75
2021/04/23 01:20:18;;;;;;;28.50;11.30;;;;;;;4.14;75.60;96658.41;1036480;28;20034;-75
2021/04/23 01:20:48;;;;;;;25.10;11.20;;;;;;;4.14;75.98;96657.63;1036473;28;20124;-75
2021/04/23 01:21:23;;;;;;;23.27;9.63;;;;;;;4.13;74.88;96654.16;1036349;28;20332;-75
2021/04/23 01:21:54;;;;;;;25.38;9.38;;;;;;;4.13;74.43;96659.44;1036263;28;20026;-75
2021/04/23 01:22:24;;;;;;;17.27;8.90;;;;;;;4.15;74.88;96660.06;1036349;28;20451;-75
2021/04/23 01:22:55;;;;;;;24.57;10.00;;;;;;;4.16;74.59;96666.97;1032926;28;20026;-75
2021/04/23 01:23:25;;;;;;;20.43;9.00;;;;;;;4.16;74.33;96664.31;1036385;28;20408;-75
2021/04/23 01:23:57;;;;;;;22.97;8.90;;;;;;;4.15;74.18;96657.41;1036419;28;20022;-75
2021/04/23 01:24:27;;;;;;;28.75;8.90;;;;;;;4.16;74.11;96659.03;1032594;28;20026;-74
2021/04/23 01:24:58;;;;;;;22.17;8.87;;;;;;;4.18;73.82;96661.47;1036386;28;20029;-74
2021/04/23 01:25:28;;;;;;;21.17;8.77;;;;;;;4.17;73.96;96658.00;1036503;28;20430;-75
2021/04/23 01:25:59;;;;;;;24.23;9.17;;;;;;;4.15;74.46;96657.41;1036427;28;20014;-74
2021/04/23 01:26:32;;;;;;;21.67;8.50;;;;;;;4.17;74.20;96657.19;1036804;28;20025;-74
2021/04/23 01:27:02;;;;;;;18.65;7.75;;;;;;;4.19;73.87;96660.44;1036639;28;20018;-74
2021/04/23 01:27:33;;;;;;;24.13;9.00;;;;;;;4.20;73.42;96653.28;1036770;28;20053;-75
2021/04/23 01:28:03;;;;;;;21.80;7.70;;;;;;;4.23;73.61;96658.19;1036347;28;20033;-74
2021/04/23 01:28:34;;;;;;;19.83;7.93;;;;;;;4.24;73.33;96659.78;1036399;28;20037;-75
2021/04/23 01:29:05;;;;;;;17.30;7.43;;;;;;;4.25;72.92;96658.75;1036324;28;20029;-74
2021/04/23 01:29:35;;;;;;;16.88;7.82;;;;;;;4.25;73.27;96658.75;1036424;28;20459;-75
2021/04/23 01:30:15;;;;;;;17.10;7.73;;;;;;;4.27;72.87;96664.66;1036745;28;20034;-75
2021/04/23 01:30:45;;;;;;;20.40;7.93;;;;;;;4.25;73.05;96664.06;1036736;28;20499;-74
2021/04/23 01:31:17;;;;;;;19.50;8.10;;;;;;;4.25;72.80;96664.06;1036676;28;20033;-74
2021/04/23 01:31:50;;;;;;;17.50;8.02;;;;;;;4.23;72.73;96659.00;1036722;28;20396;-75
2021/04/23 01:32:20;;;;;;;15.68;7.28;;;;;;;4.24;73.25;96657.94;1036676;28;20033;-74
2021/04/23 01:32:50;;;;;;;16.97;7.93;;;;;;;4.22;72.69;96657.38;1036721;28;20030;-75
2021/04/23 01:33:21;;;;;;;24.77;8.50;;;;;;;4.21;73.04;96657.59;1036627;28;20447;-75
2021/04/23 01:33:58;;;;;;;21.77;7.97;;;;;;;4.18;73.73;96659.63;1036634;28;20022;-75
2021/04/23 01:34:35;;;;;;;16.63;8.63;;;;;;;4.15;73.79;96670.66;1036735;28;20056;-74
2021/04/23 01:35:11;;;;;;;20.95;8.90;;;;;;;4.13;73.38;96667.38;1036650;28;20360;-74
2021/04/23 01:35:42;;;;;;;14.02;7.40;;;;;;;4.11;73.52;96663.34;1036734;28;20064;-74
2021/04/23 01:36:12;;;;;;;20.97;7.60;;;;;;;4.08;73.23;96669.03;1036744;28;20030;-75
2021/04/23 01:36:43;;;;;;;18.80;7.43;;;;;;;4.09;73.45;96670.66;1036677;28;20033;-76
2021/04/23 01:37:13;;;;;;;16.60;7.13;;;;;;;4.08;73.57;96669.03;1037754;28;20033;-74
2021/04/23 01:37:44;;;;;;;17.50;7.43;;;;;;;4.07;73.06;96673.53;1040770;28;20043;-74
2021/04/23 01:38:14;;;;;;;21.37;8.50;;;;;;;4.06;73.68;96671.09;1040749;28;20025;-74
2021/04/23 01:38:46;;;;;;;16.87;7.43;;;;;;;4.07;73.55;96672.72;1040748;28;20025;-75
2021/04/23 01:39:19;;;;;;;20.30;7.45;;;;;;;4.07;73.77;96670.06;1040489;28;20021;-74
2021/04/23 01:39:51;;;;;;;18.17;6.90;;;;;;;4.07;73.60;96672.72;1040746;28;20032;-75
2021/04/23 01:40:21;;;;;;;15.35;7.43;;;;;;;4.05;73.08;96674.78;1041211;28;20025;-75
2021/04/23 01:40:52;;;;;;;17.53;7.53;;;;;;;4.07;73.86;96678.00;1041502;28;20089;-74
2021/04/23 01:41:22;;;;;;;15.40;7.07;;;;;;;4.05;73.79;96667.66;1041381;28;20021;-75
2021/04/23 01:41:53;;;;;;;18.90;8.00;;;;;;;4.04;73.33;96671.28;1041117;28;20033;-75
2021/04/23 01:42:24;;;;;;;19.73;7.50;;;;;;;4.06;73.36;96669.28;1041015;28;20025;-75
2021/04/23 01:42:54;;;;;;;22.47;7.70;;;;;;;4.07;73.66;96672.72;1040479;28;20025;-74
2021/04/23 01:43:24;;;;;;;16.03;6.80;;;;;;;4.06;73.18;96669.28;1040072;28;20025;-74
2021/04/23 01:43:55;;;;;;;20.70;7.10;;;;;;;4.09;73.21;96675.97;1040575;28;20080;-75
2021/04/23 01:44:25;;;;;;;15.53;7.10;;;;;;;4.08;73.11;96669.84;1040622;28;20033;-75
2021/04/23 01:44:58;;;;;;;14.70;6.93;;;;;;;4.09;73.36;96668.81;1040681;28;20061;-75
2021/04/23 01:45:28;;;;;;;23.50;7.43;;;;;;;4.10;73.46;96670.47;1040560;28;20474;-74
2021/04/23 01:45:58;;;;;;;14.43;6.40;;;;;;;4.12;72.74;96671.06;1040590;28;20055;-74
2021/04/23 01:46:33;;;;;;;16.57;6.57;;;;;;;4.12;73.04;96671.06;1040687;28;20045;-74
2021/04/23 01:47:04;;;;;;;24.05;7.53;;;;;;;4.14;72.67;96676.94;1040709;28;20030;-74
2021/04/23 01:47:34;;;;;;;18.25;7.28;;;;;;;4.14;72.87;96669.00;1040721;28;20021;-74
2021/04/23 01:48:05;;;;;;;19.13;7.73;;;;;;;4.17;72.86;96665.94;1040623;28;20028;-74
2021/04/23 01:48:36;;;;;;;31.03;7.77;;;;;;;4.18;72.98;96672.03;1040234;28;20029;-75
2021/04/23 01:49:10;;;;;;;18.43;7.23;;;;;;;4.18;72.99;96675.50;1039840;28;20041;-74
2021/04/23 01:49:40;;;;;;;22.05;7.90;;;;;;;4.17;72.49;96667.78;1040530;28;20041;-75
2021/04/23 01:50:15;;;;;;;16.03;7.10;;;;;;;4.19;72.33;96673.66;1040660;28;20036;-74
2021/04/23 01:50:45;;;;;;;16.80;6.55;;;;;;;4.20;72.58;96670.00;1040607;28;20036;-74
2021/04/23 01:51:16;;;;;;;16.43;6.90;;;;;;;4.22;72.30;96672.44;1040640;28;20397;-74
2021/04/23 01:51:52;;;;;;;18.43;7.23;;;;;;;4.19;72.40;96668.38;1040173;28;20029;-74
2021/04/23 01:52:22;;;;;;;20.67;7.53;;;;;;;4.23;72.50;96666.91;1040640;28;20021;-75
2021/04/23 01:52:53;;;;;;;13.97;6.63;;;;;;;4.28;72.45;96668.94;1040649;28;20434;-75
2021/04/23 01:53:23;;;;;;;16.37;7.47;;;;;;;4.31;72.41;96660.56;1040665;28;20425;-75
2021/04/23 01:53:53;;;;;;;19.20;6.47;;;;;;;4.35;72.58;96664.41;1040624;28;20021;-75
2021/04/23 01:54:24;;;;;;;17.67;6.80;;;;;;;4.37;72.40;96667.66;1040387;28;20016;-75
2021/04/23 01:54:55;;;;;;;19.08;7.82;;;;;;;4.36;72.46;96676.63;1040419;28;20071;-75
2021/04/23 01:55:25;;;;;;;15.43;6.50;;;;;;;4.38;72.69;96669.28;1040373;28;20071;-75
2021/04/23 01:55:56;;;;;;;17.43;6.63;;;;;;;4.39;72.67;96665.59;1040323;28;20092;-75
2021/04/23 01:56:27;;;;;;;20.83;7.17;;;;;;;4.39;72.19;96665.59;1040554;28;20414;-74
2021/04/23 01:56:58;;;;;;;19.88;7.10;;;;;;;4.43;72.22;96666.78;1040506;28;20032;-75
2021/04/23 01:57:28;;;;;;;15.43;6.78;;;;;;;4.43;72.46;96669.44;1040621;28;20029;-75
2021/04/23 01:57:59;;;;;;;20.43;7.10;;;;;;;4.45;72.33;96662.09;1040613;28;20458;-74
2021/04/23 01:58:30;;;;;;;17.20;6.97;;;;;;;4.43;72.34;96672.91;1040661;28;20025;-74
2021/04/23 01:59:00;;;;;;;15.35;6.30;;;;;;;4.46;72.04;96663.72;1040689;28;20529;-74
2021/04/23 01:59:31;;;;;;;18.60;7.20;;;;;;;4.42;72.00;96668.63;1040685;28;20025;-75
2021/04/23 02:00:07;;;;;;;15.93;6.93;;;;;;;4.43;71.71;96674.72;1040615;28;20009;-74
2021/04/23 02:00:47;;;;;;;16.52;6.28;;;;;;;4.40;71.83;96669.84;1040620;28;20020;-75
2021/04/23 02:01:17;;;;;;;18.85;7.68;;;;;;;4.42;71.70;96670.47;1040652;28;20022;-75
2021/04/23 02:01:48;;;;;;;15.47;6.97;;;;;;;4.46;71.83;96670.88;1040721;28;20021;-75
2021/04/23 02:02:18;;;;;;;14.97;6.70;;;;;;;4.50;71.95;96672.03;1040642;28;20014;-74
2021/04/23 02:02:53;;;;;;;19.57;7.13;;;;;;;4.47;71.69;96668.00;1040684;28;20025;-75
2021/04/23 02:03:23;;;;;;;18.70;6.82;;;;;;;4.47;71.53;96669.84;1040687;28;20429;-74
2021/04/23 02:03:53;;;;;;;16.87;7.90;;;;;;;4.47;71.79;96667.19;1040576;28;20032;-75
2021/04/23 02:04:24;;;;;;;16.20;6.67;;;;;;;4.50;71.62;96661.44;1040515;28;20006;-75
2021/04/23 02:04:55;;;;;;;15.10;6.67;;;;;;;4.51;71.08;96663.91;1040607;28;20014;-75
2021/04/23 02:05:25;;;;;;;18.83;6.80;;;;;;;4.50;71.57;96662.25;1040167;28;20018;-75
2021/04/23 02:05:56;;;;;;;18.20;6.70;;;;;;;4.48;71.41;96664.31;1040258;28;20478;-75
2021/04/23 02:06:26;;;;;;;17.93;7.40;;;;;;;4.46;71.09;96666.38;1036053;28;20487;-75
2021/04/23 02:06:57;;;;;;;15.37;7.13;;;;;;;4.41;71.73;96663.56;1036196;28;20014;-75
2021/04/23 02:07:27;;;;;;;21.13;7.50;;;;;;;4.38;71.77;96663.97;1040297;28;20010;-75
2021/04/23 02:07:58;;;;;;;17.83;7.40;;;;;;;4.36;71.69;96661.56;1036206;28;20499;-75
2021/04/23 02:08:28;;;;;;;16.03;6.97;;;;;;;4.33;72.19;96661.97;1036215;28;20060;-74
2021/04/23 02:08:59;;;;;;;24.00;7.13;;;;;;;4.28;72.38;96666.28;1036280;28;20379;-74
2021/04/23 02:09:29;;;;;;;14.30;7.07;;;;;;;4.23;72.49;96669.56;1036401;28;20487;-75
2021/04/23 02:10:00;;;;;;;15.20;7.10;;;;;;;4.21;72.48;96662.88;1036370;28;20018;-75
2021/04/23 02:10:34;;;;;;;16.43;7.60;;;;;;;4.20;72.78;96658.59;1040293;28;20006;-75
2021/04/23 02:11:10;;;;;;;16.38;6.95;;;;;;;4.14;73.54;96658.41;1041177;28;20048;-76
2021/04/23 02:11:42;;;;;;;17.40;7.53;;;;;;;4.11;73.16;96666.00;1042345;28;20041;-75
2021/04/23 02:12:12;;;;;;;19.25;6.97;;;;;;;4.09;72.93;96654.78;1041858;28;20336;-75
2021/04/23 02:12:42;;;;;;;18.30;7.33;;;;;;;4.08;72.94;96663.75;1040607;28;20032;-75
2021/04/23 02:13:13;;;;;;;16.33;7.33;;;;;;;4.05;73.56;96654.44;1040644;28;20040;-75
2021/04/23 02:13:45;;;;;;;18.10;7.05;;;;;;;4.03;73.20;96659.09;1040866;28;20104;-75
2021/04/23 02:14:16;;;;;;;13.15;6.95;;;;;;;4.00;73.24;96656.91;1040613;28;20022;-75
2021/04/23 02:14:46;;;;;;;19.33;6.77;;;;;;;3.99;73.64;96654.44;1040564;28;20071;-74
2021/04/23 02:15:17;;;;;;;18.70;7.03;;;;;;;3.99;73.56;96655.25;1040586;28;20024;-74
2021/04/23 02:15:47;;;;;;;17.43;6.83;;;;;;;4.02;73.71;96656.69;1040644;28;20017;-74
2021/04/23 02:16:18;;;;;;;17.97;7.00;;;;;;;3.99;73.61;96665.03;1040563;28;20017;-75
2021/04/23 02:16:49;;;;;;;17.02;6.70;;;;;;;3.99;73.41;96657.09;1040653;28;20033;-75
2021/04/23 02:17:20;;;;;;;19.83;7.33;;;;;;;4.00;73.87;96661.38;1040564;28;20077;-74
2021/04/23 02:17:50;;;;;;;16.98;7.13;;;;;;;3.99;73.32;96665.03;1040634;28;20104;-74
2021/04/23 02:18:22;;;;;;;18.40;7.30;;;;;;;3.99;73.21;96670.31;1040645;28;20036;-75
2021/04/23 02:18:53;;;;;;;19.23;6.78;;;;;;;3.96;73.51;96658.34;1040588;28;20108;-75
2021/04/23 02:19:23;;;;;;;17.52;7.32;;;;;;;3.96;73.18;96654.88;1036157;28;20029;-74
2021/04/23 02:19:54;;;;;;;19.30;6.73;;;;;;;3.94;73.24;96663.00;1036187;28;20025;-74
2021/04/23 02:20:30;;;;;;;15.75;7.13;;;;;;;3.91;73.55;96661.63;1036119;28;20022;-74
2021/04/23 02:21:02;;;;;;;15.35;6.55;;;;;;;3.92;73.19;96667.72;1037259;28;20036;-74
2021/04/23 02:21:32;;;;;;;21.95;7.45;;;;;;;3.91;73.67;96663.44;1040106;28;20021;-74
2021/04/23 02:22:03;;;;;;;20.07;7.40;;;;;;;3.90;73.66;96654.72;1040310;28;20423;-74
2021/04/23 02:22:33;;;;;;;15.33;7.13;;;;;;;3.91;73.60;96658.97;1040249;28;20022;-74
2021/04/23 02:23:05;;;;;;;17.63;7.13;;;;;;;3.89;73.64;96661.03;1040135;28;20026;-74
2021/04/23 02:23:36;;;;;;;15.32;7.10;;;;;;;3.92;73.66;96660.59;1040605;28;20394;-75
2021/04/23 02:24:07;;;;;;;16.77;6.83;;;;;;;3.94;72.97;96663.00;1040636;28;20053;-74
2021/04/23 02:24:37;;;;;;;14.30;7.13;;;;;;;3.97;73.61;96659.16;1040603;28;20029;-74
2021/04/23 02:25:09;;;;;;;16.40;6.90;;;;;;;3.99;73.31;96655.25;1040534;28;20471;-74
2021/04/23 02:25:39;;;;;;;16.65;6.55;;;;;;;4.03;73.54;96668.88;1040608;28;20425;-74
2021/04/23 02:26:10;;;;;;;16.03;6.97;;;;;;;4.07;73.71;96659.50;1040546;28;20033;-74
2021/04/23 02:26:41;;;;;;;17.83;6.67;;;;;;;4.06;73.69;96658.69;1039965;28;20024;-74
2021/04/23 02:27:11;;;;;;;15.07;7.40;;;;;;;4.11;73.92;96658.88;1035932;28;20036;-74
2021/04/23 02:27:42;;;;;;;19.03;7.20;;;;;;;4.11;73.79;96658.06;1036130;28;20156;-74
2021/04/23 02:28:12;;;;;;;19.10;7.63;;;;;;;4.11;73.45;96658.88;1036231;28;20463;-74
2021/04/23 02:28:43;;;;;;;19.87;7.90;;;;;;;4.15;73.67;96653.97;1040184;28;20025;-74